createdAt,value
2017-11-12T00:02:15.888Z,81.89
2017-11-12T00:04:43.405Z,81.46
2017-11-12T00:07:10.896Z,82.80
2017-11-12T00:09:38.395Z,84.14
2017-11-12T00:12:06.034Z,84.63
2017-11-12T00:14:33.584Z,85.46
2017-11-12T00:17:01.073Z,84.75
2017-11-12T00:19:28.597Z,84.23
2017-11-12T00:21:56.082Z,84.63
2017-11-12T00:24:23.568Z,84.82
2017-11-12T00:26:51.097Z,85.57
2017-11-12T00:29:18.624Z,85.68
2017-11-12T00:31:46.103Z,85.61
2017-11-12T00:34:13.640Z,84.70
2017-11-12T00:36:41.124Z,85.12
2017-11-12T00:39:08.923Z,84.80
2017-11-12T00:41:36.437Z,84.03
2017-11-12T00:44:03.934Z,84.74
2017-11-12T00:46:31.430Z,85.25
2017-11-12T00:48:58.967Z,85.08
2017-11-12T00:51:26.453Z,85.79
2017-11-12T00:53:53.957Z,84.88
2017-11-12T00:56:21.474Z,85.72
2017-11-12T00:58:49.041Z,85.66
2017-11-12T01:01:16.629Z,85.39
2017-11-12T01:03:44.156Z,84.99
2017-11-12T01:06:11.713Z,84.94
2017-11-12T01:08:39.276Z,84.29
2017-11-12T01:11:06.834Z,84.55
2017-11-12T01:13:34.327Z,84.38
2017-11-12T01:16:01.818Z,85.18
2017-11-12T01:18:29.341Z,84.28
2017-11-12T01:20:56.857Z,84.73
2017-11-12T01:23:24.338Z,84.34
2017-11-12T01:25:51.869Z,84.32
2017-11-12T01:28:19.369Z,85.09
2017-11-12T01:30:46.863Z,84.43
2017-11-12T01:33:14.394Z,83.92
2017-11-12T01:35:41.912Z,84.45
2017-11-12T01:38:09.404Z,84.23
2017-11-12T01:40:36.917Z,84.54
2017-11-12T01:43:04.511Z,85.07
2017-11-12T01:45:31.993Z,85.70
2017-11-12T01:47:59.511Z,85.82
2017-11-12T01:50:27.072Z,86.07
2017-11-12T01:52:54.565Z,85.17
2017-11-12T01:55:22.116Z,85.20
2017-11-12T01:57:49.644Z,85.11
2017-11-12T02:00:17.120Z,85.27
2017-11-12T02:02:44.677Z,85.06
2017-11-12T02:05:12.217Z,85.33
2017-11-12T02:07:39.711Z,85.04
2017-11-12T02:10:07.338Z,85.57
2017-11-12T02:12:34.828Z,85.50
2017-11-12T02:15:02.318Z,85.62
2017-11-12T02:17:29.875Z,85.51
2017-11-12T02:19:57.374Z,85.29
2017-11-12T02:22:24.878Z,85.19
2017-11-12T02:24:52.407Z,85.08
2017-11-12T02:27:19.902Z,85.60
2017-11-12T02:29:47.382Z,85.05
2017-11-12T02:32:14.937Z,85.61
2017-11-12T02:34:42.424Z,86.10
2017-11-12T02:37:09.917Z,86.31
2017-11-12T02:39:37.433Z,86.67
2017-11-12T02:42:04.923Z,86.52
2017-11-12T02:44:32.554Z,87.07
2017-11-12T02:47:00.130Z,86.95
2017-11-12T02:49:27.629Z,86.40
2017-11-12T02:51:55.170Z,86.39
2017-11-12T02:54:22.688Z,85.99
2017-11-12T02:56:50.249Z,86.51
2017-11-12T02:59:17.772Z,86.24
2017-11-12T03:01:45.281Z,86.59
2017-11-12T03:04:12.821Z,86.72
2017-11-12T03:06:40.345Z,86.85
2017-11-12T03:09:07.842Z,87.40
2017-11-12T03:11:35.334Z,87.72
2017-11-12T03:14:02.951Z,87.60
2017-11-12T03:16:30.467Z,88.13
2017-11-12T03:18:57.956Z,88.12
2017-11-12T03:21:25.500Z,88.25
2017-11-12T03:23:52.997Z,88.37
2017-11-12T03:26:20.484Z,88.31
2017-11-12T03:28:48.001Z,88.47
2017-11-12T03:31:15.495Z,88.54
2017-11-12T03:33:43.085Z,88.54
2017-11-12T03:36:10.578Z,88.59
2017-11-12T03:38:38.074Z,88.84
2017-11-12T03:41:05.611Z,89.16
2017-11-12T03:43:33.108Z,89.29
2017-11-12T03:46:00.630Z,89.45
2017-11-12T03:48:28.275Z,89.33
2017-11-12T03:50:55.838Z,89.04
2017-11-12T03:53:23.333Z,89.04
2017-11-12T03:55:50.853Z,88.95
2017-11-12T03:58:18.343Z,89.14
2017-11-12T04:00:45.873Z,88.54
2017-11-12T04:03:13.403Z,88.80
2017-11-12T04:05:40.909Z,88.83
2017-11-12T04:08:08.449Z,88.90
2017-11-12T04:10:36.124Z,89.24
2017-11-12T04:13:03.665Z,89.14
2017-11-12T04:15:31.159Z,89.14
2017-11-12T04:17:58.753Z,89.43
2017-11-12T04:20:26.347Z,89.74
2017-11-12T04:22:53.841Z,89.89
2017-11-12T04:25:21.375Z,89.54
2017-11-12T04:27:48.860Z,89.68
2017-11-12T04:30:16.393Z,89.41
2017-11-12T04:32:43.921Z,89.17
2017-11-12T04:35:11.492Z,89.19
2017-11-12T04:37:38.978Z,88.73
2017-11-12T04:40:06.524Z,88.52
2017-11-12T04:42:34.069Z,88.33
2017-11-12T04:45:01.558Z,88.33
2017-11-12T04:47:29.089Z,88.37
2017-11-12T04:49:56.595Z,88.15
2017-11-12T04:52:24.088Z,88.13
2017-11-12T04:54:51.638Z,88.00
2017-11-12T04:57:19.136Z,87.89
2017-11-12T04:59:46.717Z,87.78
2017-11-12T05:02:14.441Z,87.50
2017-11-12T05:04:41.951Z,87.65
2017-11-12T05:07:09.441Z,87.96
2017-11-12T05:09:37.009Z,88.10
2017-11-12T05:12:04.596Z,88.46
2017-11-12T05:14:32.135Z,88.06
2017-11-12T05:16:59.686Z,88.08
2017-11-12T05:19:27.178Z,88.03
2017-11-12T05:21:54.718Z,88.00
2017-11-12T05:24:22.271Z,88.17
2017-11-12T05:26:49.775Z,88.33
2017-11-12T05:29:17.262Z,87.86
2017-11-12T05:31:44.859Z,87.83
2017-11-12T05:34:12.350Z,88.01
2017-11-12T05:36:39.845Z,87.84
2017-11-12T05:39:07.373Z,87.65
2017-11-12T05:41:34.862Z,87.80
2017-11-12T05:44:02.440Z,87.42
2017-11-12T05:46:30.108Z,87.30
2017-11-12T05:48:57.660Z,87.37
2017-11-12T05:51:25.153Z,87.54
2017-11-12T05:53:52.728Z,87.62
2017-11-12T05:56:20.237Z,87.87
2017-11-12T05:58:47.725Z,87.75
2017-11-12T06:01:15.254Z,88.04
2017-11-12T06:03:42.748Z,88.24
2017-11-12T06:06:10.237Z,88.47
2017-11-12T06:08:37.777Z,88.26
2017-11-12T06:11:05.270Z,88.73
2017-11-12T06:13:32.769Z,89.13
2017-11-12T06:16:00.368Z,89.31
2017-11-12T06:18:27.874Z,89.28
2017-11-12T06:20:55.364Z,89.63
2017-11-12T06:23:22.880Z,89.78
2017-11-12T06:25:50.441Z,89.92
2017-11-12T06:28:17.998Z,90.14
2017-11-12T06:30:45.528Z,90.69
2017-11-12T06:33:13.016Z,90.84
2017-11-12T06:35:40.505Z,90.89
2017-11-12T06:38:08.021Z,91.05
2017-11-12T06:40:35.585Z,91.28
2017-11-12T06:43:03.081Z,91.24
2017-11-12T06:45:30.706Z,91.04
2017-11-12T06:47:58.195Z,91.07
2017-11-12T06:50:25.684Z,91.04
2017-11-12T06:52:53.281Z,90.79
2017-11-12T06:55:20.841Z,90.94
2017-11-12T06:57:48.340Z,90.86
2017-11-12T07:00:15.885Z,91.10
2017-11-12T07:02:43.369Z,91.09
2017-11-12T07:05:10.857Z,90.70
2017-11-12T07:07:38.388Z,90.83
2017-11-12T07:10:05.896Z,90.70
2017-11-12T07:12:33.381Z,90.79
2017-11-12T07:15:01.022Z,90.62
2017-11-12T07:17:28.503Z,90.54
2017-11-12T07:19:55.993Z,90.73
2017-11-12T07:22:23.591Z,90.47
2017-11-12T07:24:51.083Z,90.37
2017-11-12T07:27:18.572Z,90.00
2017-11-12T07:29:46.490Z,89.77
2017-11-12T07:32:14.043Z,89.47
2017-11-12T07:34:41.580Z,89.38
2017-11-12T07:37:09.149Z,89.21
2017-11-12T07:39:36.637Z,88.54
2017-11-12T07:42:04.128Z,88.49
2017-11-12T07:44:31.641Z,88.29
2017-11-12T07:46:59.134Z,88.48
2017-11-12T07:49:26.633Z,88.38
2017-11-12T07:51:54.184Z,87.81
2017-11-12T07:54:21.668Z,87.67
2017-11-12T07:56:49.208Z,87.39
2017-11-12T07:59:16.748Z,87.18
2017-11-12T08:01:44.246Z,86.65
2017-11-12T08:04:11.786Z,86.73
2017-11-12T08:06:39.364Z,86.63
2017-11-12T08:09:06.850Z,86.14
2017-11-12T08:11:34.333Z,85.98
2017-11-12T08:14:01.920Z,86.15
2017-11-12T08:16:29.411Z,85.80
2017-11-12T08:18:56.894Z,85.98
2017-11-12T08:21:24.496Z,85.87
2017-11-12T08:23:52.000Z,85.98
2017-11-12T08:26:19.486Z,85.63
2017-11-12T08:28:47.009Z,85.01
2017-11-12T08:31:14.521Z,84.91
2017-11-12T08:33:42.016Z,84.66
2017-11-12T08:36:09.667Z,84.40
2017-11-12T08:38:37.148Z,84.11
2017-11-12T08:41:04.633Z,83.90
2017-11-12T08:43:32.168Z,83.73
2017-11-12T08:45:59.650Z,83.94
2017-11-12T08:48:27.132Z,83.83
2017-11-12T08:50:54.681Z,83.47
2017-11-12T08:53:22.161Z,83.35
2017-11-12T08:55:49.650Z,83.21
2017-11-12T08:58:17.179Z,83.02
2017-11-12T09:00:44.728Z,82.57
2017-11-12T09:03:12.213Z,81.99
2017-11-12T09:05:39.737Z,82.00
2017-11-12T09:08:07.220Z,81.90
2017-11-12T09:10:34.700Z,81.19
2017-11-12T09:13:02.231Z,81.32
2017-11-12T09:15:29.745Z,81.29
2017-11-12T09:17:57.236Z,81.25
2017-11-12T09:20:24.896Z,81.05
2017-11-12T09:22:52.388Z,80.46
2017-11-12T09:25:20.045Z,80.49
2017-11-12T09:27:47.569Z,80.73
2017-11-12T09:30:15.056Z,80.53
2017-11-12T09:32:42.593Z,80.63
2017-11-12T09:35:10.134Z,80.25
2017-11-12T09:37:37.729Z,80.29
2017-11-12T09:40:05.226Z,80.52
2017-11-12T09:42:32.937Z,80.17
2017-11-12T09:45:00.443Z,80.57
2017-11-12T09:47:27.935Z,80.40
2017-11-12T09:49:55.473Z,79.91
2017-11-12T09:52:22.963Z,79.30
2017-11-12T09:54:50.465Z,79.99
2017-11-12T09:57:17.991Z,79.49
2017-11-12T09:59:45.488Z,79.62
2017-11-12T10:02:13.796Z,79.11
2017-11-12T10:04:41.340Z,79.13
2017-11-12T10:07:08.834Z,78.67
2017-11-12T10:09:36.410Z,79.36
2017-11-12T10:12:03.947Z,78.67
2017-11-12T10:14:31.511Z,78.69
2017-11-12T10:16:59.009Z,79.31
2017-11-12T10:19:26.564Z,78.62
2017-11-12T10:21:54.056Z,78.56
2017-11-12T10:24:21.563Z,78.11
2017-11-12T10:26:49.204Z,77.97
2017-11-12T10:29:16.680Z,77.11
2017-11-12T10:31:44.157Z,77.66
2017-11-12T10:34:11.676Z,77.73
2017-11-12T10:36:39.169Z,77.64
2017-11-12T10:39:06.678Z,77.20
2017-11-12T10:41:34.209Z,76.93
2017-11-12T10:44:01.709Z,76.82
2017-11-12T10:46:29.216Z,76.54
2017-11-12T10:48:56.929Z,76.36
2017-11-12T10:51:24.419Z,76.48
2017-11-12T10:53:51.914Z,76.63
2017-11-12T10:56:19.503Z,75.93
2017-11-12T10:58:47.060Z,76.33
2017-11-12T11:01:14.648Z,76.04
2017-11-12T11:03:42.244Z,75.80
2017-11-12T11:06:09.848Z,75.36
2017-11-12T11:08:37.358Z,75.39
2017-11-12T11:11:04.888Z,75.36
2017-11-12T11:13:32.431Z,75.92
2017-11-12T11:15:59.925Z,75.61
2017-11-12T11:18:27.480Z,74.53
2017-11-12T11:20:54.977Z,74.56
2017-11-12T11:23:22.464Z,74.73
2017-11-12T11:25:49.988Z,75.22
2017-11-12T11:28:17.476Z,75.23
2017-11-12T11:30:44.967Z,75.56
2017-11-12T11:33:12.487Z,75.86
2017-11-12T11:35:39.978Z,75.56
2017-11-12T11:38:07.470Z,76.05
2017-11-12T11:40:35.074Z,75.27
2017-11-12T11:43:02.652Z,75.15
2017-11-12T11:45:30.160Z,74.89
2017-11-12T11:47:57.670Z,75.44
2017-11-12T11:50:25.194Z,75.15
2017-11-12T11:52:52.778Z,74.77
2017-11-12T11:55:20.273Z,75.16
2017-11-12T11:57:47.899Z,74.54
2017-11-12T12:00:15.406Z,74.61
2017-11-12T12:02:42.901Z,74.38
2017-11-12T12:05:10.418Z,73.85
2017-11-12T12:07:38.036Z,74.28
2017-11-12T12:10:05.516Z,73.92
2017-11-12T12:12:33.025Z,74.01
2017-11-12T12:15:00.593Z,74.18
2017-11-12T12:17:28.096Z,74.44
2017-11-12T12:19:55.601Z,73.85
2017-11-12T12:22:23.129Z,74.42
2017-11-12T12:24:50.621Z,74.56
2017-11-12T12:27:18.105Z,74.60
2017-11-12T12:29:45.659Z,74.40
2017-11-12T12:32:14.123Z,74.84
2017-11-12T12:34:41.614Z,74.75
2017-11-12T12:37:09.197Z,74.67
2017-11-12T12:39:36.686Z,74.06
2017-11-12T12:42:04.173Z,74.05
2017-11-12T12:44:31.720Z,74.17
2017-11-12T12:46:59.274Z,74.58
2017-11-12T12:49:26.851Z,75.30
2017-11-12T12:51:54.391Z,75.67
2017-11-12T12:54:21.870Z,76.20
2017-11-12T12:56:49.382Z,76.60
2017-11-12T12:59:16.965Z,76.34
2017-11-12T13:01:44.525Z,76.71
2017-11-12T13:04:12.018Z,76.77
2017-11-12T13:06:39.546Z,76.99
2017-11-12T13:09:07.035Z,76.61
2017-11-12T13:11:34.526Z,76.49
2017-11-12T13:14:02.071Z,76.46
2017-11-12T13:16:29.549Z,76.54
2017-11-12T13:18:57.040Z,76.68
2017-11-12T13:21:24.566Z,77.12
2017-11-12T13:23:52.055Z,76.77
2017-11-12T13:26:19.630Z,76.52
2017-11-12T13:28:47.188Z,76.54
2017-11-12T13:31:14.739Z,76.60
2017-11-12T13:33:42.270Z,76.85
2017-11-12T13:36:09.822Z,76.62
2017-11-12T13:38:37.307Z,76.08
2017-11-12T13:41:04.876Z,75.85
2017-11-12T13:43:32.436Z,76.00
2017-11-12T13:45:59.927Z,76.51
2017-11-12T13:48:27.416Z,76.61
2017-11-12T13:50:54.937Z,77.02
2017-11-12T13:53:22.504Z,77.45
2017-11-12T13:55:50.032Z,77.99
2017-11-12T13:58:17.681Z,78.02
2017-11-12T14:00:45.180Z,77.87
2017-11-12T14:05:46.657Z,77.79
2017-11-12T14:08:14.153Z,78.10
2017-11-12T14:10:41.641Z,78.03
2017-11-12T14:13:09.175Z,78.24
2017-11-12T14:15:36.664Z,78.34
2017-11-12T14:18:04.155Z,78.49
2017-11-12T14:20:31.754Z,78.31
2017-11-12T14:22:59.237Z,78.78
2017-11-12T14:25:26.717Z,78.49
2017-11-12T14:27:54.229Z,78.25
2017-11-12T14:30:21.716Z,78.50
2017-11-12T14:32:49.200Z,79.24
2017-11-12T14:35:16.726Z,79.39
2017-11-12T14:37:44.221Z,79.68
2017-11-12T14:40:11.715Z,79.68
2017-11-12T14:42:39.273Z,79.96
2017-11-12T14:45:06.766Z,79.75
2017-11-12T14:47:34.250Z,79.80
2017-11-12T14:50:01.792Z,79.58
2017-11-12T14:52:29.273Z,79.29
2017-11-12T14:54:56.748Z,79.40
2017-11-12T14:57:24.280Z,80.30
2017-11-12T14:59:51.764Z,80.25
2017-11-12T15:02:19.255Z,80.37
2017-11-12T15:04:46.780Z,80.51
2017-11-12T15:07:14.274Z,80.62
2017-11-12T15:09:41.832Z,80.85
2017-11-12T15:12:09.373Z,80.21
2017-11-12T15:14:36.868Z,80.50
2017-11-12T15:17:04.359Z,80.96
2017-11-12T15:19:31.895Z,80.96
2017-11-12T15:21:59.393Z,80.73
2017-11-12T15:24:26.891Z,80.81
2017-11-12T15:26:54.417Z,80.68
2017-11-12T15:29:21.911Z,81.14
2017-11-12T15:31:49.454Z,81.18
2017-11-12T15:34:16.993Z,81.28
2017-11-12T15:36:44.482Z,81.55
2017-11-12T15:39:11.974Z,81.51
2017-11-12T15:41:39.489Z,81.88
2017-11-12T15:44:06.982Z,81.74
2017-11-12T15:46:34.461Z,81.74
2017-11-12T15:49:01.993Z,81.73
2017-11-12T15:51:29.548Z,81.90
2017-11-12T15:53:57.032Z,81.99
2017-11-12T15:56:24.559Z,82.07
2017-11-12T15:58:52.044Z,81.88
2017-11-12T16:01:19.536Z,81.84
2017-11-12T16:03:47.074Z,81.77
2017-11-12T16:06:14.564Z,81.72
2017-11-12T16:08:42.120Z,81.59
2017-11-12T16:11:09.689Z,81.53
2017-11-12T16:13:37.179Z,81.74
2017-11-12T16:16:04.661Z,81.75
2017-11-12T16:18:32.250Z,81.67
2017-11-12T16:20:59.742Z,81.54
2017-11-12T16:23:27.261Z,81.75
2017-11-12T16:25:54.780Z,81.65
2017-11-12T16:28:22.261Z,81.59
2017-11-12T16:30:49.764Z,81.62
2017-11-12T16:33:17.295Z,81.51
2017-11-12T16:35:44.875Z,81.47
2017-11-12T16:38:12.433Z,81.83
2017-11-12T16:40:40.109Z,81.72
2017-11-12T16:43:07.606Z,81.57
2017-11-12T16:45:35.094Z,81.60
2017-11-12T16:48:02.659Z,81.75
2017-11-12T16:50:30.172Z,81.85
2017-11-12T16:52:57.669Z,81.78
2017-11-12T16:55:25.220Z,82.07
2017-11-12T16:57:52.714Z,82.23
2017-11-12T17:00:20.209Z,82.03
2017-11-12T17:02:47.905Z,82.17
2017-11-12T17:05:15.397Z,82.32
2017-11-12T17:07:42.886Z,82.37
2017-11-12T17:10:10.418Z,82.54
2017-11-12T17:12:37.905Z,82.61
2017-11-12T17:15:05.398Z,82.70
2017-11-12T17:17:32.938Z,82.94
2017-11-12T17:20:00.507Z,83.03
2017-11-12T17:22:28.079Z,83.18
2017-11-12T17:24:55.738Z,83.21
2017-11-12T17:27:23.293Z,83.32
2017-11-12T17:29:50.785Z,83.23
2017-11-12T17:32:18.353Z,83.12
2017-11-12T17:34:45.846Z,83.10
2017-11-12T17:37:13.340Z,82.67
2017-11-12T17:39:40.865Z,82.97
2017-11-12T17:42:08.355Z,83.05
2017-11-12T17:44:35.860Z,83.09
2017-11-12T17:47:03.405Z,83.30
2017-11-12T17:49:30.901Z,82.96
2017-11-12T17:51:58.391Z,83.42
2017-11-12T17:54:25.935Z,83.38
2017-11-12T17:56:53.427Z,83.42
2017-11-12T17:59:20.922Z,83.51
2017-11-12T18:01:48.513Z,83.54
2017-11-12T18:04:16.013Z,83.61
2017-11-12T18:06:43.510Z,83.72
2017-11-12T18:09:11.031Z,83.82
2017-11-12T18:11:38.540Z,84.19
2017-11-12T18:14:06.029Z,84.54
2017-11-12T18:16:33.665Z,84.39
2017-11-12T18:19:01.165Z,83.95
2017-11-12T18:21:32.167Z,84.03
2017-11-12T18:23:59.696Z,84.05
2017-11-12T18:26:27.288Z,83.68
2017-11-12T18:28:54.784Z,83.31
2017-11-12T18:31:22.313Z,83.03
2017-11-12T18:33:49.817Z,82.94
2017-11-12T18:36:18.260Z,83.29
2017-11-12T18:38:46.136Z,83.60
2017-11-12T18:41:14.408Z,83.68
2017-11-12T18:43:43.062Z,83.87
2017-11-12T18:46:11.844Z,83.99
2017-11-12T18:48:41.149Z,84.10
2017-11-12T18:51:08.666Z,84.19
2017-11-12T18:53:36.195Z,84.33
2017-11-12T18:56:04.018Z,84.51
2017-11-12T18:58:43.369Z,84.75
2017-11-12T19:01:11.374Z,84.29
2017-11-12T19:03:48.635Z,84.13
2017-11-12T19:06:21.949Z,84.89
2017-11-12T19:08:53.096Z,85.37
2017-11-12T19:11:20.670Z,85.37
2017-11-12T19:13:48.311Z,85.23
2017-11-12T19:16:16.130Z,85.40
2017-11-12T19:18:45.650Z,85.36
2017-11-12T19:21:13.979Z,85.28
2017-11-12T19:23:42.649Z,85.49
2017-11-12T19:26:13.892Z,85.88
2017-11-12T19:28:47.222Z,85.63
2017-11-12T19:31:15.053Z,85.51
2017-11-12T19:33:42.915Z,85.64
2017-11-12T19:36:10.791Z,85.55
2017-11-12T19:38:38.648Z,85.24
2017-11-12T19:41:06.520Z,85.62
2017-11-12T19:43:34.592Z,85.56
2017-11-12T19:46:02.457Z,86.10
2017-11-12T19:48:30.324Z,86.06
2017-11-12T19:50:58.189Z,86.06
2017-11-12T19:53:26.058Z,85.99
2017-11-12T19:55:53.912Z,86.25
2017-11-12T19:58:21.790Z,86.26
2017-11-12T20:00:49.655Z,86.28
2017-11-12T20:03:17.523Z,85.75
2017-11-12T20:05:45.390Z,85.58
2017-11-12T20:08:13.247Z,85.45
2017-11-12T20:10:41.122Z,85.02
2017-11-12T20:13:09.094Z,85.16
2017-11-12T20:15:36.855Z,84.94
2017-11-12T20:18:04.708Z,84.97
2017-11-12T20:20:32.587Z,85.03
2017-11-12T20:23:00.559Z,85.21
2017-11-12T20:25:28.409Z,85.19
2017-11-12T20:27:55.992Z,85.52
2017-11-12T20:30:23.543Z,85.74
2017-11-12T20:32:51.100Z,85.70
2017-11-12T20:35:18.644Z,85.82
2017-11-12T20:37:46.144Z,85.79
2017-11-12T20:40:13.647Z,85.25
2017-11-12T20:42:41.186Z,85.04
2017-11-12T20:45:08.680Z,84.76
2017-11-12T20:47:36.164Z,84.63
2017-11-12T20:50:03.716Z,84.41
2017-11-12T20:52:32.112Z,84.70
2017-11-12T20:54:59.603Z,84.99
2017-11-12T20:57:27.157Z,84.91
2017-11-12T20:59:54.666Z,84.92
2017-11-12T21:02:22.161Z,84.73
2017-11-12T21:04:55.737Z,84.59
2017-11-12T21:07:23.256Z,84.67
2017-11-12T21:09:50.763Z,84.80
2017-11-12T21:12:18.287Z,85.16
2017-11-12T21:14:45.778Z,85.56
2017-11-12T21:17:13.340Z,85.91
2017-11-12T21:19:43.260Z,86.65
2017-11-12T21:22:16.296Z,86.45
2017-11-12T21:24:43.841Z,86.70
2017-11-12T21:30:23.014Z,86.21
2017-11-12T21:32:50.502Z,86.61
2017-11-12T21:35:33.717Z,86.73
2017-11-12T21:38:01.205Z,87.26
2017-11-12T21:40:29.585Z,87.38
2017-11-12T21:42:57.124Z,87.37
2017-11-12T21:45:24.613Z,87.41
2017-11-12T21:47:52.105Z,87.59
2017-11-12T21:50:19.650Z,87.87
2017-11-12T21:52:47.240Z,87.81
2017-11-12T21:55:14.753Z,87.75
2017-11-12T21:57:42.304Z,88.04
2017-11-12T22:00:09.810Z,88.16
2017-11-12T22:02:37.305Z,88.57
2017-11-12T22:05:04.945Z,88.48
2017-11-12T22:07:32.430Z,88.27
2017-11-12T22:09:59.919Z,88.43
2017-11-12T22:12:27.486Z,88.77
2017-11-12T22:14:55.052Z,88.12
2017-11-12T22:17:22.613Z,88.17
2017-11-12T22:19:50.215Z,87.92
2017-11-12T22:22:17.809Z,87.51
2017-11-12T22:24:45.300Z,87.83
2017-11-12T22:27:12.837Z,87.82
2017-11-12T22:29:40.333Z,87.81
2017-11-12T22:32:07.869Z,88.17
2017-11-12T22:34:35.396Z,88.15
2017-11-12T22:37:02.988Z,87.24
2017-11-12T22:39:30.476Z,87.32
2017-11-12T22:41:58.099Z,87.40
2017-11-12T22:44:25.587Z,88.04
2017-11-12T22:46:53.074Z,87.98
2017-11-12T22:49:20.608Z,88.32
2017-11-12T22:51:48.139Z,88.09
2017-11-12T22:54:15.625Z,88.38
2017-11-12T22:56:43.161Z,87.77
2017-11-12T22:59:10.729Z,88.01
2017-11-12T23:01:38.222Z,88.38
2017-11-12T23:04:05.777Z,88.07
2017-11-12T23:06:33.293Z,88.31
2017-11-12T23:09:00.785Z,88.07
2017-11-12T23:11:28.676Z,88.50
2017-11-12T23:13:56.170Z,88.24
2017-11-12T23:16:23.665Z,88.16
2017-11-12T23:18:51.213Z,88.28
2017-11-12T23:21:18.711Z,88.53
2017-11-12T23:23:46.201Z,88.58
2017-11-12T23:26:13.776Z,88.80
2017-11-12T23:28:41.274Z,88.68
2017-11-12T23:31:08.776Z,88.74
2017-11-12T23:33:36.299Z,88.43
2017-11-12T23:36:03.790Z,87.75
2017-11-12T23:38:31.272Z,88.26
2017-11-12T23:40:58.804Z,88.76
2017-11-12T23:43:26.331Z,88.20
2017-11-12T23:45:53.817Z,88.82
2017-11-12T23:48:21.338Z,88.36
2017-11-12T23:50:48.830Z,88.47
2017-11-12T23:53:16.338Z,88.29
2017-11-12T23:55:43.878Z,88.40
2017-11-12T23:58:11.366Z,88.66
